Time;durP1;ratioP1;P1;durP2;ratioP2;P2;SDS_P1;SDS_P2;PMS_P1;PMS_P2;Temp;Humidity;BMP_temperature;BMP_pressure;BME280_temperature;BME280_humidity;BME280_pressure;Samples;Min_cycle;Max_cycle;Signal;HPM_P1;HPM_P2
2023/09/06 00:00:08;;;;;;;2.97;1.63;;;;;;;23.01;57.01;101788.31;5054849;27;20056;-67
2023/09/06 00:02:36;;;;;;;3.03;2.17;;;;;;;22.99;57.08;101782.28;5060487;28;20053;-67
2023/09/06 00:05:05;;;;;;;4.57;2.20;;;;;;;22.98;57.14;101783.41;5061307;27;20045;-67
2023/09/06 00:07:34;;;;;;;5.25;2.05;;;;;;;22.94;57.11;101793.28;5059736;27;20465;-67
2023/09/06 00:10:02;;;;;;;3.08;1.98;;;;;;;22.93;56.92;101788.09;5059729;28;20113;-67
2023/09/06 00:12:30;;;;;;;7.28;2.45;;;;;;;22.92;56.86;101791.91;5059281;28;20053;-67
2023/09/06 00:14:58;;;;;;;4.47;2.10;;;;;;;22.89;57.14;101787.00;5057436;27;20061;-67
2023/09/06 00:17:25;;;;;;;2.60;1.90;;;;;;;22.87;56.68;101784.53;5061715;27;20064;-67
2023/09/06 00:19:53;;;;;;;3.80;2.08;;;;;;;22.86;57.10;101795.78;5053875;28;20374;-67
2023/09/06 00:22:21;;;;;;;4.43;2.38;;;;;;;22.84;57.26;101790.59;5055323;27;20041;-67
2023/09/06 00:24:50;;;;;;;2.92;1.88;;;;;;;22.82;56.98;101792.78;5054763;28;20056;-67
2023/09/06 00:27:18;;;;;;;4.63;2.13;;;;;;;22.81;56.87;101787.59;5055891;27;20109;-67
2023/09/06 00:29:47;;;;;;;3.10;1.77;;;;;;;22.74;56.79;101794.16;5059177;27;20067;-67
2023/09/06 00:32:14;;;;;;;2.75;1.95;;;;;;;22.77;56.92;101781.00;5059668;27;20041;-66
2023/09/06 00:34:42;;;;;;;3.53;2.10;;;;;;;22.78;57.19;101780.72;5062870;27;20053;-66
2023/09/06 00:37:10;;;;;;;2.60;1.88;;;;;;;22.77;57.10;101783.75;5053987;27;20071;-67
2023/09/06 00:39:38;;;;;;;4.78;2.08;;;;;;;22.77;56.80;101775.50;5054175;27;20402;-67
2023/09/06 00:42:08;;;;;;;3.28;2.05;;;;;;;22.74;56.73;101780.47;5060608;28;20045;-66
2023/09/06 00:44:35;;;;;;;5.60;2.28;;;;;;;22.72;56.88;101779.09;5057659;27;20431;-66
2023/09/06 00:47:04;;;;;;;4.05;2.10;;;;;;;22.72;57.19;101792.81;5058490;27;20045;-66
2023/09/06 00:49:31;;;;;;;3.60;2.40;;;;;;;22.71;56.67;101791.16;5055809;28;20049;-67
2023/09/06 00:51:59;;;;;;;2.58;2.00;;;;;;;22.68;57.06;101795.28;5054535;27;20106;-67
2023/09/06 00:54:28;;;;;;;3.67;2.20;;;;;;;22.68;57.05;101797.19;5056934;27;20110;-67
2023/09/06 00:56:55;;;;;;;3.22;1.92;;;;;;;22.66;56.77;101791.19;5056844;27;20196;-66
2023/09/06 00:59:26;;;;;;;2.83;1.90;;;;;;;22.64;56.71;101794.19;5055425;28;20052;-67
2023/09/06 01:01:55;;;;;;;4.25;2.42;;;;;;;22.62;56.79;101787.34;5056633;28;21518;-67
2023/09/06 01:04:25;;;;;;;3.83;2.20;;;;;;;22.62;57.26;101790.09;5057917;27;20068;-67
2023/09/06 01:06:57;;;;;;;2.78;1.90;;;;;;;22.59;56.95;101788.75;5054258;27;20509;-67
2023/09/06 01:09:26;;;;;;;5.43;2.20;;;;;;;22.57;56.74;101790.94;5056593;27;20577;-67
2023/09/06 01:11:53;;;;;;;4.25;1.88;;;;;;;22.56;57.35;101783.81;5055545;28;20041;-66
2023/09/06 01:14:21;;;;;;;3.60;2.00;;;;;;;22.54;56.93;101788.75;5053054;28;20053;-67
2023/09/06 01:16:54;;;;;;;6.45;2.03;;;;;;;22.53;57.12;101786.31;5059282;27;20056;-67
2023/09/06 01:19:26;;;;;;;4.95;2.47;;;;;;;22.52;57.22;101793.72;5061423;27;20412;-67
2023/09/06 01:22:05;;;;;;;3.42;2.10;;;;;;;22.48;57.21;101784.41;5054543;27;20074;-67
2023/09/06 01:24:35;;;;;;;3.00;1.98;;;;;;;22.44;57.30;101786.06;5057384;28;20837;-67
2023/09/06 01:27:05;;;;;;;5.32;2.22;;;;;;;22.45;57.15;101789.63;5056909;27;20096;-66
2023/09/06 01:29:34;;;;;;;4.68;2.30;;;;;;;22.43;57.37;101791.84;5050662;28;20087;-66
2023/09/06 01:32:05;;;;;;;5.97;2.20;;;;;;;22.40;57.36;101795.94;5057137;27;20099;-66
2023/09/06 01:34:33;;;;;;;4.40;2.15;;;;;;;22.40;56.97;101795.94;5058067;27;20060;-66
2023/09/06 01:37:00;;;;;;;2.92;1.70;;;;;;;22.38;57.26;101795.41;5058558;27;20070;-66
2023/09/06 01:39:28;;;;;;;3.38;2.08;;;;;;;22.36;57.07;101800.34;5058312;27;20600;-66
2023/09/06 01:41:57;;;;;;;4.22;2.30;;;;;;;22.32;57.00;101799.25;5059238;27;20049;-67
2023/09/06 01:44:26;;;;;;;3.20;2.10;;;;;;;22.32;57.07;101804.72;5057899;28;20075;-67
2023/09/06 01:46:54;;;;;;;5.47;2.22;;;;;;;22.29;57.28;101800.63;5060891;27;20822;-67
2023/09/06 01:49:22;;;;;;;3.05;1.90;;;;;;;22.27;57.16;101800.09;5057188;28;20037;-66
2023/09/06 01:51:50;;;;;;;4.20;2.45;;;;;;;22.25;57.42;101801.47;5069484;27;20624;-67
2023/09/06 01:54:18;;;;;;;3.40;2.08;;;;;;;22.24;57.50;101802.56;5053277;28;20063;-66
2023/09/06 01:56:46;;;;;;;4.35;2.17;;;;;;;22.22;57.23;101808.31;5050208;27;20321;-67
2023/09/06 01:59:15;;;;;;;3.38;2.15;;;;;;;22.19;57.51;101808.03;5056226;28;20041;-67
2023/09/06 02:01:43;;;;;;;6.57;2.55;;;;;;;22.18;57.45;101812.69;5060635;27;20051;-67
2023/09/06 02:04:11;;;;;;;7.20;2.17;;;;;;;22.17;57.63;101805.59;5055201;28;20288;-67
2023/09/06 02:06:39;;;;;;;3.67;2.30;;;;;;;22.15;57.30;101809.69;5055961;28;20650;-67
2023/09/06 02:09:07;;;;;;;3.63;2.20;;;;;;;22.13;57.49;101809.16;5064364;27;20080;-67
2023/09/06 02:11:35;;;;;;;2.90;2.05;;;;;;;22.12;57.24;101808.31;5053968;28;20570;-66
2023/09/06 02:14:02;;;;;;;4.95;2.30;;;;;;;22.09;57.70;101808.88;5068687;27;20047;-66
2023/09/06 02:16:31;;;;;;;5.32;2.15;;;;;;;22.09;57.44;101808.88;5053466;28;20049;-66
2023/09/06 02:18:59;;;;;;;2.95;2.13;;;;;;;22.06;57.31;101802.03;5054823;27;20486;-66
2023/09/06 02:21:28;;;;;;;3.08;2.00;;;;;;;22.06;57.35;101801.22;5055603;28;20587;-66
2023/09/06 02:23:56;;;;;;;3.15;1.80;;;;;;;22.03;57.63;101807.25;5056883;27;20072;-67
2023/09/06 02:26:24;;;;;;;3.30;2.17;;;;;;;22.01;57.43;101801.19;5051049;27;20077;-66
2023/09/06 02:28:52;;;;;;;4.82;2.10;;;;;;;21.99;57.75;101806.94;5061721;27;20370;-66
2023/09/06 02:31:20;;;;;;;4.63;2.35;;;;;;;21.99;57.71;101806.13;5053874;27;20053;-67
2023/09/06 02:33:49;;;;;;;3.88;2.15;;;;;;;21.98;57.70;101805.28;5054419;27;20049;-66
2023/09/06 02:36:17;;;;;;;3.75;2.10;;;;;;;21.97;57.53;101808.31;5082959;27;20075;-66
2023/09/06 02:38:45;;;;;;;4.70;2.28;;;;;;;21.95;57.62;101805.03;5056126;28;20102;-67
2023/09/06 02:41:15;;;;;;;6.15;2.47;;;;;;;21.92;57.75;101806.38;5072782;27;20055;-66
2023/09/06 02:43:42;;;;;;;4.85;2.28;;;;;;;21.92;57.39;101802.84;5056292;27;20057;-66
2023/09/06 02:46:12;;;;;;;4.55;2.28;;;;;;;21.91;57.62;101812.97;5053829;27;20052;-66
2023/09/06 02:48:40;;;;;;;4.13;2.15;;;;;;;21.90;57.86;101807.75;5056518;28;20076;-66
2023/09/06 02:51:10;;;;;;;6.75;2.30;;;;;;;21.89;57.46;101806.13;5057986;27;20053;-66
2023/09/06 02:53:44;;;;;;;4.20;2.42;;;;;;;21.87;57.47;101813.78;5059428;28;20365;-67
2023/09/06 02:56:13;;;;;;;5.57;2.65;;;;;;;21.85;57.73;101797.63;5058118;28;20463;-68
2023/09/06 02:58:42;;;;;;;4.13;2.30;;;;;;;21.84;57.65;101804.22;5055379;27;20061;-67
2023/09/06 03:01:19;;;;;;;3.85;2.28;;;;;;;21.83;57.82;101804.47;5057448;28;20049;-67
2023/09/06 03:03:51;;;;;;;5.70;2.40;;;;;;;21.79;57.76;101800.66;5063556;28;20063;-66
2023/09/06 03:06:32;;;;;;;3.83;2.35;;;;;;;21.79;57.66;101812.41;5058590;27;20045;-66
2023/09/06 03:09:00;;;;;;;6.18;2.83;;;;;;;21.77;57.51;101807.22;5054945;28;20057;-67
2023/09/06 03:11:28;;;;;;;3.95;2.50;;;;;;;21.76;57.62;101810.22;5059546;28;20052;-66
2023/09/06 03:13:57;;;;;;;4.88;2.40;;;;;;;21.74;57.88;101810.50;5054351;28;20053;-67
2023/09/06 03:16:25;;;;;;;3.45;2.25;;;;;;;21.72;57.85;101803.66;5061068;27;20053;-67
2023/09/06 03:18:54;;;;;;;8.68;2.75;;;;;;;21.70;57.64;101803.09;5055418;28;20048;-66
2023/09/06 03:21:24;;;;;;;4.70;2.63;;;;;;;21.69;57.64;101812.41;5057215;28;20074;-67
2023/09/06 03:23:52;;;;;;;4.00;2.50;;;;;;;21.64;57.92;101807.75;5056933;27;20056;-67
2023/09/06 03:26:22;;;;;;;3.72;2.30;;;;;;;21.64;57.67;101810.50;5056778;28;20117;-65
2023/09/06 03:28:55;;;;;;;3.17;2.35;;;;;;;21.62;57.59;101812.69;5054225;27;20073;-66
2023/09/06 03:31:24;;;;;;;5.78;2.30;;;;;;;21.56;57.86;101810.22;5058426;27;20160;-66
2023/09/06 03:33:53;;;;;;;5.35;2.78;;;;;;;21.58;57.89;101816.22;5057916;27;20113;-66
2023/09/06 03:36:24;;;;;;;4.10;2.42;;;;;;;21.57;57.68;101815.41;5051618;28;20296;-66
2023/09/06 03:38:55;;;;;;;4.63;2.75;;;;;;;21.55;57.80;101816.78;5048695;27;20056;-66
2023/09/06 03:41:23;;;;;;;3.88;2.60;;;;;;;21.54;57.76;101812.41;5058426;27;20117;-66
2023/09/06 03:43:53;;;;;;;4.78;2.28;;;;;;;21.52;57.80;101809.94;5056208;28;20053;-66
2023/09/06 03:46:22;;;;;;;3.25;2.10;;;;;;;21.50;57.87;101822.22;5055441;28;20120;-66
2023/09/06 03:48:50;;;;;;;4.38;2.20;;;;;;;21.48;57.82;101827.16;5055642;28;20083;-66
2023/09/06 03:51:18;;;;;;;4.88;2.90;;;;;;;21.46;57.96;101824.69;5055401;28;20045;-66
2023/09/06 03:53:47;;;;;;;4.15;2.45;;;;;;;21.43;57.86;101820.59;5054337;27;20352;-67
2023/09/06 03:56:16;;;;;;;5.72;2.72;;;;;;;21.43;57.96;101825.22;5055577;28;20076;-67
2023/09/06 03:58:44;;;;;;;7.20;2.65;;;;;;;21.40;58.13;101821.13;5059468;27;20048;-67
2023/09/06 04:01:15;;;;;;;4.53;2.45;;;;;;;21.39;58.08;101824.13;5056852;28;20163;-66
2023/09/06 04:03:43;;;;;;;5.60;2.47;;;;;;;21.38;57.97;101823.31;5058809;28;20056;-66
2023/09/06 04:06:11;;;;;;;4.90;2.45;;;;;;;21.36;58.10;101828.22;5053017;27;20053;-66
2023/09/06 04:08:39;;;;;;;4.72;2.60;;;;;;;21.34;58.12;101833.16;5063334;27;20081;-66
2023/09/06 04:11:09;;;;;;;5.50;2.45;;;;;;;21.30;57.99;101826.56;5058685;27;20062;-65
2023/09/06 04:13:43;;;;;;;5.32;2.75;;;;;;;21.29;58.13;101824.94;5054688;28;20057;-66
2023/09/06 04:16:11;;;;;;;3.90;2.65;;;;;;;21.28;58.15;101831.50;5055520;27;20045;-66
2023/09/06 04:18:41;;;;;;;3.58;2.50;;;;;;;21.27;58.17;101829.84;5059623;27;20049;-66
2023/09/06 04:21:10;;;;;;;3.50;2.50;;;;;;;21.22;58.01;101827.09;5060648;28;20097;-66
2023/09/06 04:23:39;;;;;;;4.63;2.63;;;;;;;21.24;58.31;101833.13;5064928;27;20522;-66
2023/09/06 04:26:07;;;;;;;3.50;2.75;;;;;;;21.23;58.22;101836.13;5068022;27;20088;-66
2023/09/06 04:28:35;;;;;;;4.80;2.45;;;;;;;21.19;58.14;101829.50;5059097;27;20118;-66
2023/09/06 04:31:05;;;;;;;3.42;2.33;;;;;;;21.19;58.25;101834.97;5054800;27;20631;-66
2023/09/06 04:33:33;;;;;;;4.47;2.75;;;;;;;21.17;58.12;101842.63;5059365;28;20051;-66
2023/09/06 04:36:02;;;;;;;6.05;2.83;;;;;;;21.17;58.15;101839.91;5058034;27;20053;-67
2023/09/06 04:38:31;;;;;;;3.97;2.60;;;;;;;21.13;58.39;101832.22;5056074;27;20063;-66
2023/09/06 04:40:59;;;;;;;4.93;2.75;;;;;;;21.13;58.20;101842.34;5077596;27;20045;-66
2023/09/06 04:43:28;;;;;;;4.85;2.78;;;;;;;21.12;58.41;101847.00;5054212;27;20050;-67
2023/09/06 04:45:56;;;;;;;4.63;2.65;;;;;;;21.10;58.30;101848.34;5058894;27;20509;-66
2023/09/06 04:48:25;;;;;;;4.90;2.95;;;;;;;21.06;58.33;101836.31;5058394;27;20128;-67
2023/09/06 04:50:56;;;;;;;4.25;2.92;;;;;;;20.92;58.32;101826.97;5057429;27;20044;-67
2023/09/06 04:53:24;;;;;;;3.53;2.40;;;;;;;21.05;58.29;101842.88;5063167;27;20478;-67
2023/09/06 04:55:52;;;;;;;3.53;2.65;;;;;;;21.05;58.43;101851.06;5057599;28;20055;-67
2023/09/06 04:58:20;;;;;;;5.13;2.75;;;;;;;21.02;58.29;101848.88;5055859;27;20166;-66
2023/09/06 05:00:49;;;;;;;4.47;2.75;;;;;;;21.00;58.55;101859.25;5056841;28;20045;-66
2023/09/06 05:03:18;;;;;;;4.30;2.83;;;;;;;20.99;58.47;101857.59;5058432;28;20133;-69
2023/09/06 05:05:48;;;;;;;3.72;2.70;;;;;;;20.96;58.38;101864.41;5055699;28;20052;-67
2023/09/06 05:08:16;;;;;;;5.03;3.10;;;;;;;20.95;58.32;101865.50;5058464;27;20090;-66
2023/09/06 05:10:44;;;;;;;4.10;2.78;;;;;;;20.93;58.50;101870.41;5058576;28;20049;-67
2023/09/06 05:13:12;;;;;;;5.95;3.30;;;;;;;20.93;58.55;101864.13;5057865;27;20109;-68
2023/09/06 05:15:40;;;;;;;5.25;2.67;;;;;;;20.92;58.64;101859.75;5055499;27;20136;-67
2023/09/06 05:18:08;;;;;;;5.75;3.22;;;;;;;20.91;58.58;101863.56;5059617;27;20045;-69
2023/09/06 05:20:39;;;;;;;8.05;2.80;;;;;;;20.89;58.62;101869.31;5055303;28;20082;-67
2023/09/06 05:23:09;;;;;;;4.75;3.20;;;;;;;20.84;58.71;101863.81;5057139;28;20108;-69
2023/09/06 05:25:38;;;;;;;5.47;3.13;;;;;;;20.86;58.41;101871.75;5060423;27;20090;-69
2023/09/06 05:28:08;;;;;;;6.80;2.80;;;;;;;20.79;58.56;101859.19;5056137;28;20089;-67
2023/09/06 05:30:38;;;;;;;5.50;2.70;;;;;;;20.85;58.43;101870.09;5059839;28;20112;-64
2023/09/06 05:33:07;;;;;;;4.15;2.92;;;;;;;20.83;58.71;101870.38;5061038;27;20071;-66
2023/09/06 05:35:35;;;;;;;5.15;3.20;;;;;;;20.82;58.67;101878.81;5069663;27;20045;-66
2023/09/06 05:38:04;;;;;;;5.30;2.97;;;;;;;20.79;58.63;101874.75;5060535;28;20531;-66
2023/09/06 05:40:34;;;;;;;5.63;2.88;;;;;;;20.78;58.76;101879.38;5057481;27;20076;-65
2023/09/06 05:43:03;;;;;;;6.03;2.50;;;;;;;20.77;58.76;101876.91;5059528;28;20045;-65
2023/09/06 05:45:32;;;;;;;5.45;3.13;;;;;;;20.76;58.80;101883.47;5052056;28;20051;-67
2023/09/06 05:47:59;;;;;;;8.52;3.03;;;;;;;20.75;58.71;101888.13;5062037;27;20059;-68
2023/09/06 05:50:28;;;;;;;3.70;2.70;;;;;;;20.75;58.84;101887.28;5057076;28;20082;-66
2023/09/06 05:52:56;;;;;;;4.60;2.65;;;;;;;20.71;58.77;101878.81;5053266;27;20140;-68
2023/09/06 05:55:24;;;;;;;4.65;2.72;;;;;;;20.71;58.74;101888.91;5060135;27;20053;-66
2023/09/06 05:57:53;;;;;;;8.20;2.70;;;;;;;20.70;58.70;101887.25;5055847;28;20053;-69
2023/09/06 06:00:22;;;;;;;4.07;3.00;;;;;;;20.70;58.88;101892.72;5056039;27;20155;-67
2023/09/06 06:02:50;;;;;;;4.57;2.80;;;;;;;20.69;58.68;101886.44;5056980;28;20049;-68
2023/09/06 06:05:19;;;;;;;5.55;3.10;;;;;;;20.67;58.89;101885.06;5054164;27;20120;-68
2023/09/06 06:07:47;;;;;;;4.90;2.83;;;;;;;20.65;58.97;101882.59;5057053;28;20079;-67
2023/09/06 06:10:15;;;;;;;4.40;3.08;;;;;;;20.62;58.80;101885.03;5057287;27;20052;-65
2023/09/06 06:12:43;;;;;;;6.45;3.10;;;;;;;20.63;59.38;101889.41;5057896;27;20045;-68
2023/09/06 06:15:13;;;;;;;5.65;3.13;;;;;;;20.54;59.42;101880.88;5048087;28;20077;-66
2023/09/06 06:17:41;;;;;;;12.73;3.67;;;;;;;20.61;59.35;101894.31;5059457;28;20087;-66
2023/09/06 06:20:11;;;;;;;5.57;2.85;;;;;;;20.63;59.41;101895.69;5060178;27;20045;-66
2023/09/06 06:22:39;;;;;;;9.43;3.45;;;;;;;20.63;59.30;101897.59;5058609;27;20120;-66
2023/09/06 06:25:10;;;;;;;8.00;3.47;;;;;;;20.63;59.40;101890.22;5059575;28;20130;-67
2023/09/06 06:27:39;;;;;;;4.82;3.03;;;;;;;20.63;59.30;101894.88;5061292;27;20076;-66
2023/09/06 06:30:08;;;;;;;7.10;3.03;;;;;;;20.59;59.02;101891.00;5058189;28;20048;-67
2023/09/06 06:32:38;;;;;;;8.45;2.95;;;;;;;20.64;59.20;101896.50;5056574;28;20044;-66
2023/09/06 06:35:08;;;;;;;6.35;2.95;;;;;;;20.65;59.26;101904.44;5060662;28;20140;-66
2023/09/06 06:37:36;;;;;;;8.02;3.38;;;;;;;20.67;59.16;101906.91;5062225;27;20069;-66
2023/09/06 06:40:06;;;;;;;4.28;2.63;;;;;;;20.66;59.33;101900.63;5052049;28;20057;-66
2023/09/06 06:42:34;;;;;;;4.72;2.22;;;;;;;20.68;59.20;101906.66;5058725;27;20371;-67
2023/09/06 06:45:04;;;;;;;5.57;2.40;;;;;;;20.67;59.09;101909.66;5057625;27;20140;-66
2023/09/06 06:47:32;;;;;;;5.28;2.40;;;;;;;20.66;59.13;101911.56;5060271;28;20051;-66
2023/09/06 06:50:05;;;;;;;4.65;2.50;;;;;;;20.67;59.08;101909.66;5060418;28;20117;-67
2023/09/06 06:52:36;;;;;;;3.30;2.17;;;;;;;20.67;59.26;101910.47;5055974;27;20163;-67
2023/09/06 06:55:04;;;;;;;6.65;2.45;;;;;;;20.69;59.19;101921.97;5055857;27;20054;-67
2023/09/06 06:57:33;;;;;;;6.50;2.45;;;;;;;20.70;59.13;101909.13;5059168;27;20063;-67
2023/09/06 07:00:05;;;;;;;5.55;2.50;;;;;;;20.68;59.21;101917.56;5055192;28;20048;-67
2023/09/06 07:02:34;;;;;;;3.78;2.47;;;;;;;20.71;59.23;101908.03;5059398;27;20053;-67
2023/09/06 07:05:04;;;;;;;8.23;2.58;;;;;;;20.70;59.31;101926.34;5050437;28;20156;-67
2023/09/06 07:07:32;;;;;;;3.92;2.55;;;;;;;20.70;59.27;101931.78;5058325;27;20044;-67
2023/09/06 07:10:01;;;;;;;4.18;2.30;;;;;;;20.71;59.25;101918.97;5065664;28;20049;-67
2023/09/06 07:12:29;;;;;;;4.60;2.55;;;;;;;20.71;59.28;101924.41;5060572;27;20059;-67
2023/09/06 07:14:57;;;;;;;7.18;2.88;;;;;;;20.71;59.22;101917.06;5055835;28;20064;-67
2023/09/06 07:17:26;;;;;;;4.05;2.40;;;;;;;20.73;59.28;101919.53;5058372;27;20279;-67
2023/09/06 07:19:54;;;;;;;3.45;2.50;;;;;;;20.73;59.33;101914.06;5058494;28;20049;-67
2023/09/06 07:22:23;;;;;;;3.60;2.40;;;;;;;20.72;59.33;101915.13;5057935;27;20116;-67
2023/09/06 07:24:51;;;;;;;5.03;2.25;;;;;;;20.72;59.58;101910.50;5057538;28;20056;-67
2023/09/06 07:27:20;;;;;;;5.38;3.08;;;;;;;20.72;59.53;101913.22;5048934;27;20105;-68
2023/09/06 07:29:48;;;;;;;3.85;2.50;;;;;;;20.72;59.52;101915.97;5056522;28;20413;-67
2023/09/06 07:32:16;;;;;;;3.55;2.20;;;;;;;20.74;59.50;101921.16;5060183;28;20190;-67
2023/09/06 07:34:45;;;;;;;3.85;2.10;;;;;;;20.73;59.54;101914.06;5081069;27;20055;-67
2023/09/06 07:37:12;;;;;;;4.90;3.00;;;;;;;20.73;59.70;101922.25;5059884;28;20141;-67
2023/09/06 07:39:41;;;;;;;3.17;2.40;;;;;;;20.75;59.59;101917.34;5050930;27;20056;-67
2023/09/06 07:42:09;;;;;;;4.65;2.10;;;;;;;20.74;59.61;101919.25;5060711;27;20052;-67
2023/09/06 07:44:37;;;;;;;3.92;2.40;;;;;;;20.76;59.80;101922.53;5062150;28;20053;-67
2023/09/06 07:47:05;;;;;;;3.70;2.47;;;;;;;20.77;59.80;101918.72;5063676;27;20066;-67
2023/09/06 07:49:33;;;;;;;4.68;2.30;;;;;;;20.79;59.87;101923.94;5060393;27;20049;-67
2023/09/06 07:52:04;;;;;;;3.47;2.22;;;;;;;20.80;59.87;101928.31;5056942;28;20113;-67
2023/09/06 07:54:33;;;;;;;5.35;2.33;;;;;;;20.81;59.90;101921.72;5064450;27;20064;-67
2023/09/06 07:57:02;;;;;;;3.63;2.10;;;;;;;20.83;59.93;101924.19;5057213;27;20087;-69
2023/09/06 07:59:30;;;;;;;4.70;2.47;;;;;;;20.84;60.00;101914.91;5058768;27;20057;-67
2023/09/06 08:01:57;;;;;;;5.15;2.22;;;;;;;20.85;59.96;101922.03;5062079;28;20535;-67
2023/09/06 08:04:25;;;;;;;3.08;2.00;;;;;;;20.86;60.17;101927.22;5058989;28;20520;-67
2023/09/06 08:06:55;;;;;;;3.22;2.10;;;;;;;20.87;60.32;101930.78;5061812;28;20045;-67
2023/09/06 08:09:24;;;;;;;7.70;2.22;;;;;;;20.89;60.19;101934.88;5064176;27;20057;-67
2023/09/06 08:11:52;;;;;;;5.15;2.28;;;;;;;20.90;60.28;101924.78;5061681;27;20041;-67
2023/09/06 08:14:21;;;;;;;2.75;1.95;;;;;;;20.91;60.20;101929.16;5057679;27;20094;-67
2023/09/06 08:16:49;;;;;;;5.97;2.53;;;;;;;20.92;60.34;101931.63;5064292;27;20060;-67
2023/09/06 08:19:17;;;;;;;4.95;2.33;;;;;;;20.92;60.39;101937.09;5064435;27;20470;-67
2023/09/06 08:21:45;;;;;;;3.33;2.40;;;;;;;20.93;60.40;101932.44;5062159;28;20120;-67
2023/09/06 08:24:13;;;;;;;4.03;1.88;;;;;;;20.93;60.26;101929.72;5062186;27;20045;-67
2023/09/06 08:26:40;;;;;;;2.90;2.15;;;;;;;20.95;60.43;101935.75;5061690;28;20044;-67
2023/09/06 08:29:08;;;;;;;4.95;2.25;;;;;;;20.95;60.51;101933.84;5058056;28;20071;-66
2023/09/06 08:31:37;;;;;;;2.72;1.90;;;;;;;20.97;60.70;101931.66;5057672;28;20129;-67
2023/09/06 08:34:06;;;;;;;3.00;1.92;;;;;;;20.98;60.78;101930.56;5061589;27;20045;-65
2023/09/06 08:36:34;;;;;;;3.00;2.00;;;;;;;21.00;60.66;101927.56;5079728;27;20053;-67
2023/09/06 08:39:03;;;;;;;3.15;1.90;;;;;;;21.02;61.05;101934.41;5062141;27;20052;-67
2023/09/06 08:41:32;;;;;;;4.78;2.17;;;;;;;21.04;60.89;101931.41;5064071;27;20057;-67
2023/09/06 08:44:06;;;;;;;4.80;1.77;;;;;;;20.93;61.30;101905.13;5061395;27;20501;-67
2023/09/06 08:46:39;;;;;;;3.08;2.20;;;;;;;21.07;61.43;101925.41;5060826;28;20044;-67
2023/09/06 08:49:10;;;;;;;5.43;2.08;;;;;;;21.11;61.61;101937.47;5062323;28;20481;-67
2023/09/06 08:51:39;;;;;;;5.97;2.28;;;;;;;21.12;61.40;101934.47;5064158;27;20065;-67
2023/09/06 08:54:07;;;;;;;4.68;2.03;;;;;;;21.13;61.60;101936.13;5059470;27;20048;-67
2023/09/06 08:56:35;;;;;;;5.78;2.10;;;;;;;21.16;61.66;101932.03;5058492;28;20060;-67
2023/09/06 08:59:04;;;;;;;6.53;2.00;;;;;;;21.18;61.67;101939.97;5051895;28;20049;-67
2023/09/06 09:01:37;;;;;;;3.80;1.98;;;;;;;21.19;61.68;101934.22;5060906;27;20474;-67
2023/09/06 09:04:07;;;;;;;4.00;2.00;;;;;;;21.22;61.82;101932.91;5060635;28;20072;-67
2023/09/06 09:06:42;;;;;;;3.70;2.13;;;;;;;21.25;62.10;101926.91;5060581;27;20127;-67
2023/09/06 09:09:16;;;;;;;4.72;2.30;;;;;;;21.26;62.01;101934.00;5059279;27;20041;-66
2023/09/06 09:11:46;;;;;;;3.80;2.05;;;;;;;21.26;62.31;101932.09;5062187;28;20381;-67
2023/09/06 09:14:21;;;;;;;3.00;1.95;;;;;;;21.31;62.14;101932.13;5059426;27;20164;-67
2023/09/06 09:16:55;;;;;;;7.03;2.58;;;;;;;21.35;62.04;101926.94;5060075;28;20060;-67
2023/09/06 09:19:25;;;;;;;3.33;2.40;;;;;;;21.36;62.07;101926.69;5063225;27;20136;-67
2023/09/06 09:21:55;;;;;;;4.85;2.28;;;;;;;21.40;62.25;101930.53;5061243;28;20049;-67
2023/09/06 09:24:27;;;;;;;3.35;2.10;;;;;;;21.38;62.32;101927.22;5057261;27;20053;-67
2023/09/06 09:26:57;;;;;;;3.05;2.03;;;;;;;21.45;62.34;101935.19;5060996;27;20041;-67
2023/09/06 09:29:25;;;;;;;2.60;2.00;;;;;;;21.38;62.01;101910.00;5056269;28;20148;-67
2023/09/06 09:31:52;;;;;;;3.20;2.05;;;;;;;21.52;62.32;101927.56;5061567;27;20056;-67
2023/09/06 09:34:21;;;;;;;6.68;1.88;;;;;;;21.54;62.25;101930.84;5062292;27;20489;-67
2023/09/06 09:36:51;;;;;;;3.47;2.05;;;;;;;21.57;62.33;101927.56;5081508;27;20048;-67
2023/09/06 09:39:25;;;;;;;3.17;1.83;;;;;;;21.59;62.04;101932.78;5058129;27;20044;-67
2023/09/06 09:41:53;;;;;;;4.63;2.20;;;;;;;21.61;62.39;101928.69;5054794;28;20063;-67
2023/09/06 09:44:27;;;;;;;3.30;2.13;;;;;;;21.64;62.23;101917.19;5052986;27;20136;-67
2023/09/06 09:46:57;;;;;;;3.55;2.10;;;;;;;21.70;62.62;101926.25;5061476;28;20140;-67
2023/09/06 09:49:26;;;;;;;5.47;2.40;;;;;;;21.70;62.49;101915.28;5056684;27;20042;-68
2023/09/06 09:51:55;;;;;;;6.15;2.42;;;;;;;21.77;62.44;101913.94;5060681;28;20157;-67
2023/09/06 09:54:24;;;;;;;3.50;2.10;;;;;;;21.81;62.66;101916.13;5065726;27;20049;-67
2023/09/06 09:57:03;;;;;;;4.70;2.38;;;;;;;21.85;62.45;101922.72;5060246;27;20041;-68
2023/09/06 09:59:31;;;;;;;3.65;2.17;;;;;;;21.88;62.45;101919.44;5060534;27;20049;-67
2023/09/06 10:02:00;;;;;;;5.35;2.00;;;;;;;21.91;62.61;101916.97;5060181;27;20061;-67
2023/09/06 10:04:29;;;;;;;2.20;1.88;;;;;;;21.94;62.62;101918.34;5059816;28;20110;-67
2023/09/06 10:06:59;;;;;;;8.50;2.55;;;;;;;21.97;62.37;101913.16;5058215;27;20044;-68
2023/09/06 10:09:28;;;;;;;5.35;2.30;;;;;;;22.02;62.52;101918.66;5062139;27;20105;-68
2023/09/06 10:11:59;;;;;;;4.13;1.95;;;;;;;22.07;62.38;101912.38;5060971;28;20482;-68
2023/09/06 10:14:28;;;;;;;4.20;2.40;;;;;;;22.12;62.59;101915.09;5052573;28;20161;-67
2023/09/06 10:16:56;;;;;;;4.97;2.15;;;;;;;22.15;62.30;101911.81;5054352;28;20052;-67
2023/09/06 10:19:24;;;;;;;3.40;1.95;;;;;;;22.21;62.73;101912.66;5054971;27;20160;-67
2023/09/06 10:21:53;;;;;;;3.25;1.83;;;;;;;22.24;62.55;101903.88;5060062;28;20045;-66
2023/09/06 10:24:23;;;;;;;2.97;2.20;;;;;;;22.30;62.73;101905.53;5055510;28;20178;-65
2023/09/06 10:26:53;;;;;;;3.00;2.10;;;;;;;22.31;62.80;101894.28;5065716;28;20132;-65
2023/09/06 10:29:24;;;;;;;3.33;2.30;;;;;;;22.43;62.34;101906.88;5057177;28;20041;-66
2023/09/06 10:31:53;;;;;;;4.82;2.90;;;;;;;22.47;62.44;101897.84;5056914;28;20423;-65
2023/09/06 10:34:21;;;;;;;5.45;1.92;;;;;;;22.52;62.52;101908.78;5068880;27;20079;-67
2023/09/06 10:36:55;;;;;;;5.45;2.88;;;;;;;22.61;61.60;101906.28;5067329;27;20046;-65
2023/09/06 10:39:26;;;;;;;3.60;2.13;;;;;;;22.71;61.83;101909.00;5058063;27;20044;-64
2023/09/06 10:42:15;;;;;;;4.05;2.47;;;;;;;22.81;62.00;101897.22;5061791;27;20077;-67
2023/09/06 10:45:09;;;;;;;4.28;2.20;;;;;;;22.88;62.63;101897.75;5060516;28;20184;-68
2023/09/06 10:47:38;;;;;;;4.82;2.35;;;;;;;22.93;62.31;101892.25;5064175;28;20049;-68
2023/09/06 10:50:12;;;;;;;4.35;2.13;;;;;;;23.01;62.55;101895.25;5058567;27;20059;-68
2023/09/06 10:52:45;;;;;;;4.18;2.60;;;;;;;23.08;62.79;101891.38;5054367;28;20053;-67
2023/09/06 10:55:18;;;;;;;2.97;2.00;;;;;;;23.16;62.94;101886.13;5056526;27;20101;-68
2023/09/06 10:57:52;;;;;;;4.35;2.40;;;;;;;23.18;62.59;101886.69;5057171;28;20469;-68
2023/09/06 11:00:25;;;;;;;5.43;2.60;;;;;;;23.27;62.59;101901.44;5052764;28;20473;-67
2023/09/06 11:03:17;;;;;;;3.78;2.20;;;;;;;23.31;62.38;101899.78;5049342;27;20088;-67
2023/09/06 11:05:52;;;;;;;3.50;2.30;;;;;;;23.37;62.43;101893.16;5051179;27;20049;-67
2023/09/06 11:08:33;;;;;;;3.78;2.28;;;;;;;23.41;61.74;101882.44;5060286;27;20110;-67
2023/09/06 11:11:09;;;;;;;3.72;2.08;;;;;;;23.45;62.00;101890.94;5054435;27;20095;-68
2023/09/06 11:13:38;;;;;;;6.00;2.47;;;;;;;23.48;61.78;101890.38;5056435;27;20045;-67
2023/09/06 11:16:11;;;;;;;3.22;1.88;;;;;;;23.50;62.15;101888.16;5055843;27;20080;-67
2023/09/06 11:18:46;;;;;;;4.18;2.45;;;;;;;23.54;62.55;101889.28;5058925;27;20136;-68
2023/09/06 11:21:18;;;;;;;6.22;2.47;;;;;;;23.55;62.04;101883.50;5057384;27;20093;-68
2023/09/06 11:23:48;;;;;;;4.13;2.67;;;;;;;23.59;62.15;101884.56;5052715;27;20052;-68
2023/09/06 11:26:17;;;;;;;2.95;2.10;;;;;;;23.65;62.37;101883.44;5052103;27;20054;-68
2023/09/06 11:28:47;;;;;;;2.90;2.25;;;;;;;23.71;62.15;101880.66;5052218;27;20106;-68
2023/09/06 11:31:25;;;;;;;4.90;2.65;;;;;;;23.76;61.95;101880.63;5056111;27;20056;-69
2023/09/06 11:33:55;;;;;;;4.07;2.13;;;;;;;23.77;62.20;101883.09;5058381;27;20047;-68